AIC121 VOHS-VABB
Flight info
| Callsign | AIC121 |
|---|---|
| Flight time | N/A |
| Altitude | 36000 |
| Route | TAMIV5 APUSU W18 OPAKA EMRAK2A |
| Aircraft | A20N/M-SDE2E3FGHIRWXY/LB1 |
Departure
| Time | 2026-04-25 09:45 |
|---|---|
| Airport | Rajiv Gandhi International Airport (VOHS) |
Arrival
| Time | N/A |
|---|---|
| Airport | Chhatrapati Shivaji Maharaj International Airport (VABB) |
| Time | Latitude | Longitude | Altitude | Speed | Heading |
|---|---|---|---|---|---|
| 2026-04-25 07:58 | 17.23422 | 78.43204 | 1981 ft | 0 kts | 0° |
| 2026-04-25 09:24 | 17.23420 | 78.43204 | 1979 ft | 0 kts | 0° |
| 2026-04-25 09:24 | 17.23416 | 78.43204 | 1979 ft | 1 kts | 0° |
| 2026-04-25 09:24 | 17.23411 | 78.43204 | 1984 ft | 2 kts | 0° |
| 2026-04-25 09:25 | 17.23381 | 78.43204 | 1981 ft | 4 kts | 349° |
| 2026-04-25 09:25 | 17.23355 | 78.43218 | 1983 ft | 3 kts | 283° |
| 2026-04-25 09:25 | 17.23355 | 78.43221 | 1979 ft | 0 kts | 276° |
| 2026-04-25 09:27 | 17.23355 | 78.43218 | 1983 ft | 2 kts | 276° |
| 2026-04-25 09:27 | 17.23344 | 78.43175 | 1980 ft | 0 kts | 223° |
| 2026-04-25 09:27 | 17.23309 | 78.43160 | 1979 ft | 12 kts | 181° |
| 2026-04-25 09:27 | 17.23194 | 78.43160 | 1980 ft | 0 kts | 174° |
| 2026-04-25 09:28 | 17.23191 | 78.43160 | 1979 ft | 0 kts | 173° |
| 2026-04-25 09:28 | 17.23190 | 78.43161 | 1979 ft | 1 kts | 173° |
| 2026-04-25 09:28 | 17.23119 | 78.43172 | 1981 ft | 17 kts | 149° |
| 2026-04-25 09:29 | 17.23092 | 78.43307 | 1978 ft | 23 kts | 91° |
| 2026-04-25 09:29 | 17.23089 | 78.43454 | 1978 ft | 0 kts | 91° |
| 2026-04-25 09:30 | 17.23089 | 78.43461 | 1979 ft | 7 kts | 91° |
| 2026-04-25 09:30 | 17.23088 | 78.43524 | 1979 ft | 16 kts | 90° |
| 2026-04-25 09:30 | 17.23090 | 78.43675 | 1979 ft | 27 kts | 89° |
| 2026-04-25 09:30 | 17.23097 | 78.43917 | 1980 ft | 39 kts | 88° |
| 2026-04-25 09:31 | 17.23104 | 78.44183 | 1981 ft | 36 kts | 94° |
| 2026-04-25 09:31 | 17.23100 | 78.44347 | 1983 ft | 31 kts | 89° |
| 2026-04-25 09:31 | 17.23109 | 78.44669 | 1980 ft | 35 kts | 88° |
| 2026-04-25 09:31 | 17.23111 | 78.44920 | 1980 ft | 30 kts | 91° |
| 2026-04-25 09:32 | 17.23115 | 78.45109 | 1982 ft | 22 kts | 88° |
| 2026-04-25 09:32 | 17.23115 | 78.45227 | 1980 ft | 13 kts | 91° |
| 2026-04-25 09:32 | 17.23114 | 78.45283 | 1982 ft | 0 kts | 91° |
| 2026-04-25 09:34 | 17.23108 | 78.45297 | 1981 ft | 12 kts | 117° |
| 2026-04-25 09:35 | 17.23071 | 78.45319 | 1979 ft | 0 kts | 174° |
| 2026-04-25 09:35 | 17.23070 | 78.45319 | 1979 ft | 0 kts | 173° |
| 2026-04-25 09:36 | 17.23076 | 78.45318 | 1979 ft | 0 kts | 173° |
| 2026-04-25 09:37 | 17.23056 | 78.45320 | 1982 ft | 8 kts | 177° |
| 2026-04-25 09:37 | 17.23030 | 78.45320 | 1980 ft | 0 kts | 180° |
| 2026-04-25 09:44 | 17.22929 | 78.45242 | 1980 ft | 27 kts | 237° |
| 2026-04-25 09:44 | 17.22908 | 78.45040 | 1981 ft | 33 kts | 267° |
| 2026-04-25 09:44 | 17.22900 | 78.44486 | 1982 ft | 117 kts | 268° |
| 2026-04-25 09:44 | 17.22885 | 78.43388 | 2016 ft | 179 kts | 270° |
| 2026-04-25 09:45 | 17.22854 | 78.42025 | 2605 ft | 200 kts | 269° |
| 2026-04-25 09:45 | 17.22865 | 78.40448 | 3087 ft | 235 kts | 270° |
| 2026-04-25 09:45 | 17.22893 | 78.38589 | 3297 ft | 276 kts | 270° |
| 2026-04-25 09:45 | 17.22918 | 78.36591 | 3415 ft | 264 kts | 271° |
| 2026-04-25 09:46 | 17.22934 | 78.34750 | 3469 ft | 243 kts | 270° |
| 2026-04-25 09:46 | 17.22907 | 78.33042 | 3421 ft | 229 kts | 268° |
| 2026-04-25 09:46 | 17.22872 | 78.31395 | 3311 ft | 231 kts | 269° |
| 2026-04-25 09:46 | 17.22837 | 78.29600 | 3864 ft | 259 kts | 269° |
| 2026-04-25 09:47 | 17.22794 | 78.27648 | 4592 ft | 278 kts | 269° |
| 2026-04-25 09:47 | 17.22736 | 78.25562 | 5233 ft | 295 kts | 268° |
| 2026-04-25 09:47 | 17.22676 | 78.23365 | 5902 ft | 308 kts | 268° |
| 2026-04-25 09:47 | 17.22615 | 78.21099 | 6692 ft | 316 kts | 268° |
| 2026-04-25 09:48 | 17.22549 | 78.18757 | 7400 ft | 327 kts | 268° |
| 2026-04-25 09:48 | 17.22474 | 78.16349 | 8105 ft | 337 kts | 268° |
| 2026-04-25 09:48 | 17.22678 | 78.13880 | 8838 ft | 346 kts | 282° |
| 2026-04-25 09:48 | 17.23225 | 78.11390 | 9581 ft | 356 kts | 284° |
| 2026-04-25 09:49 | 17.23823 | 78.08838 | 10292 ft | 366 kts | 285° |
| 2026-04-25 09:49 | 17.24677 | 78.06314 | 10994 ft | 373 kts | 300° |
| 2026-04-25 09:49 | 17.26264 | 78.04194 | 11703 ft | 379 kts | 318° |
| 2026-04-25 09:49 | 17.28234 | 78.02315 | 12442 ft | 387 kts | 319° |
| 2026-04-25 09:50 | 17.30255 | 78.00419 | 13194 ft | 395 kts | 319° |
| 2026-04-25 09:50 | 17.32330 | 77.98470 | 13763 ft | 409 kts | 319° |
| 2026-04-25 09:50 | 17.34500 | 77.96431 | 13924 ft | 431 kts | 319° |
| 2026-04-25 09:50 | 17.36599 | 77.94076 | 13991 ft | 455 kts | 307° |
| 2026-04-25 09:51 | 17.38274 | 77.91190 | 14205 ft | 466 kts | 298° |
| 2026-04-25 09:51 | 17.39750 | 77.88276 | 14474 ft | 444 kts | 298° |
| 2026-04-25 09:51 | 17.40961 | 77.85368 | 14201 ft | 428 kts | 287° |
| 2026-04-25 09:51 | 17.41713 | 77.82359 | 13995 ft | 432 kts | 284° |
| 2026-04-25 09:52 | 17.42458 | 77.79250 | 13980 ft | 446 kts | 284° |
| 2026-04-25 09:52 | 17.43213 | 77.76099 | 13981 ft | 447 kts | 284° |
| 2026-04-25 09:52 | 17.43970 | 77.72945 | 13980 ft | 446 kts | 284° |
| 2026-04-25 09:52 | 17.44726 | 77.69789 | 13985 ft | 447 kts | 284° |
| 2026-04-25 09:53 | 17.45482 | 77.66635 | 13980 ft | 446 kts | 284° |
| 2026-04-25 09:53 | 17.46240 | 77.63477 | 13979 ft | 447 kts | 284° |
| 2026-04-25 09:53 | 17.46998 | 77.60313 | 14049 ft | 447 kts | 284° |
| 2026-04-25 09:53 | 17.47753 | 77.57161 | 14323 ft | 451 kts | 284° |
| 2026-04-25 09:54 | 17.48518 | 77.53975 | 14977 ft | 449 kts | 284° |
| 2026-04-25 09:54 | 17.49272 | 77.50846 | 15684 ft | 447 kts | 284° |
| 2026-04-25 09:54 | 17.50037 | 77.47704 | 16414 ft | 444 kts | 284° |
| 2026-04-25 09:54 | 17.50802 | 77.44580 | 17149 ft | 441 kts | 284° |
| 2026-04-25 09:55 | 17.51569 | 77.41485 | 17915 ft | 436 kts | 284° |
| 2026-04-25 09:55 | 17.52300 | 77.38571 | 18744 ft | 378 kts | 284° |
| 2026-04-25 09:55 | 17.52922 | 77.36187 | 19277 ft | 320 kts | 284° |
| 2026-04-25 09:55 | 17.53528 | 77.33937 | 19817 ft | 321 kts | 284° |
| 2026-04-25 09:56 | 17.54152 | 77.31693 | 20522 ft | 319 kts | 284° |
| 2026-04-25 09:56 | 17.54793 | 77.29468 | 21241 ft | 316 kts | 284° |
| 2026-04-25 09:56 | 17.55447 | 77.27287 | 21982 ft | 313 kts | 284° |
| 2026-04-25 09:56 | 17.56119 | 77.25133 | 22746 ft | 308 kts | 284° |
| 2026-04-25 09:57 | 17.56804 | 77.23026 | 23512 ft | 302 kts | 284° |
| 2026-04-25 09:57 | 17.57500 | 77.20938 | 24104 ft | 298 kts | 284° |
| 2026-04-25 09:57 | 17.58188 | 77.18903 | 24628 ft | 295 kts | 284° |
| 2026-04-25 09:57 | 17.58872 | 77.16918 | 25159 ft | 291 kts | 284° |
| 2026-04-25 09:58 | 17.59427 | 77.14915 | 25693 ft | 279 kts | 269° |
| 2026-04-25 09:58 | 17.59358 | 77.12921 | 26158 ft | 272 kts | 261° |
| 2026-04-25 09:58 | 17.59193 | 77.10925 | 26581 ft | 271 kts | 261° |
| 2026-04-25 09:58 | 17.59031 | 77.08980 | 26932 ft | 273 kts | 261° |
| 2026-04-25 09:59 | 17.58860 | 77.06962 | 27086 ft | 282 kts | 261° |
| 2026-04-25 09:59 | 17.58687 | 77.04908 | 27429 ft | 284 kts | 261° |
| 2026-04-25 09:59 | 17.58515 | 77.02838 | 27796 ft | 285 kts | 261° |
| 2026-04-25 09:59 | 17.58342 | 77.00764 | 28151 ft | 287 kts | 260° |
| 2026-04-25 10:00 | 17.58167 | 76.98675 | 28507 ft | 288 kts | 260° |
| 2026-04-25 10:00 | 17.57991 | 76.96578 | 28858 ft | 290 kts | 260° |
| 2026-04-25 10:00 | 17.57815 | 76.94468 | 29197 ft | 291 kts | 260° |
| 2026-04-25 10:00 | 17.57637 | 76.92349 | 29535 ft | 293 kts | 260° |
| 2026-04-25 10:01 | 17.57458 | 76.90219 | 29867 ft | 294 kts | 260° |
| 2026-04-25 10:01 | 17.57279 | 76.88086 | 30176 ft | 293 kts | 260° |
| 2026-04-25 10:01 | 17.57103 | 76.85966 | 30562 ft | 291 kts | 259° |
| 2026-04-25 10:01 | 17.56921 | 76.83826 | 30746 ft | 295 kts | 259° |
| 2026-04-25 10:02 | 17.56740 | 76.81687 | 31024 ft | 296 kts | 259° |
| 2026-04-25 10:02 | 17.56557 | 76.79529 | 31275 ft | 298 kts | 259° |
| 2026-04-25 10:02 | 17.56373 | 76.77358 | 31512 ft | 300 kts | 259° |
| 2026-04-25 10:02 | 17.56188 | 76.75178 | 31748 ft | 301 kts | 259° |
| 2026-04-25 10:03 | 17.56002 | 76.72987 | 31988 ft | 303 kts | 259° |
| 2026-04-25 10:03 | 17.55815 | 76.70777 | 32227 ft | 304 kts | 259° |
| 2026-04-25 10:03 | 17.55782 | 76.68541 | 32428 ft | 314 kts | 274° |
| 2026-04-25 10:03 | 17.56556 | 76.66347 | 32585 ft | 334 kts | 295° |
| 2026-04-25 10:04 | 17.58138 | 76.64518 | 32727 ft | 356 kts | 315° |
| 2026-04-25 10:04 | 17.60342 | 76.63223 | 32905 ft | 371 kts | 328° |
| 2026-04-25 10:04 | 17.62745 | 76.62193 | 33122 ft | 374 kts | 330° |
| 2026-04-25 10:04 | 17.65152 | 76.61160 | 33390 ft | 373 kts | 328° |
| 2026-04-25 10:05 | 17.67528 | 76.60051 | 33574 ft | 374 kts | 326° |
| 2026-04-25 10:05 | 17.69871 | 76.58880 | 33756 ft | 374 kts | 324° |
| 2026-04-25 10:05 | 17.72208 | 76.57667 | 33955 ft | 376 kts | 324° |
| 2026-04-25 10:05 | 17.74550 | 76.56433 | 34115 ft | 377 kts | 324° |
| 2026-04-25 10:06 | 17.76885 | 76.55196 | 34291 ft | 378 kts | 324° |
| 2026-04-25 10:06 | 17.79241 | 76.53948 | 34462 ft | 379 kts | 324° |
| 2026-04-25 10:06 | 17.81602 | 76.52697 | 34636 ft | 380 kts | 324° |
| 2026-04-25 10:06 | 17.83967 | 76.51445 | 34805 ft | 382 kts | 324° |
| 2026-04-25 10:07 | 17.86343 | 76.50188 | 34970 ft | 383 kts | 324° |
| 2026-04-25 10:07 | 17.88737 | 76.48921 | 35073 ft | 386 kts | 324° |
| 2026-04-25 10:07 | 17.91139 | 76.47649 | 35258 ft | 387 kts | 324° |
| 2026-04-25 10:07 | 17.93543 | 76.46376 | 35425 ft | 388 kts | 324° |
| 2026-04-25 10:08 | 17.95961 | 76.45096 | 35599 ft | 389 kts | 324° |
| 2026-04-25 10:08 | 17.98384 | 76.43812 | 35746 ft | 391 kts | 324° |
| 2026-04-25 10:08 | 18.00814 | 76.42525 | 35922 ft | 392 kts | 324° |
| 2026-04-25 10:08 | 18.03256 | 76.41236 | 36069 ft | 393 kts | 324° |
| 2026-04-25 10:09 | 18.05703 | 76.39947 | 36223 ft | 394 kts | 324° |
| 2026-04-25 10:09 | 18.08164 | 76.38651 | 36375 ft | 395 kts | 324° |
| 2026-04-25 10:09 | 18.10622 | 76.37355 | 36529 ft | 396 kts | 324° |
| 2026-04-25 10:09 | 18.13082 | 76.36057 | 36689 ft | 397 kts | 324° |
| 2026-04-25 10:10 | 18.15558 | 76.34751 | 36825 ft | 398 kts | 324° |
| 2026-04-25 10:10 | 18.18011 | 76.33456 | 36966 ft | 399 kts | 324° |
| 2026-04-25 10:10 | 18.20521 | 76.32131 | 37105 ft | 400 kts | 324° |
| 2026-04-25 10:10 | 18.23012 | 76.30816 | 37248 ft | 401 kts | 324° |
| 2026-04-25 10:11 | 18.24687 | 76.29931 | 37341 ft | 401 kts | 324° |
| 2026-04-25 10:11 | 18.27082 | 76.28666 | 37474 ft | 402 kts | 324° |
| 2026-04-25 10:12 | 18.29406 | 76.27438 | 37588 ft | 403 kts | 324° |
| 2026-04-25 10:12 | 18.31313 | 76.26429 | 37691 ft | 404 kts | 324° |